Time;durP1;ratioP1;P1;durP2;ratioP2;P2;SDS_P1;SDS_P2;PMS_P1;PMS_P2;Temp;Humidity;BMP_temperature;BMP_pressure;BME280_temperature;BME280_humidity;BME280_pressure;Samples;Min_cycle;Max_cycle;Signal;HPM_P1;HPM_P2
2023/06/09 00:01:44;;;;;;;0.10;0.10;;;13.10;99.90;;;;;;5069324;28;20267;-81
2023/06/09 00:04:15;;;;;;;0.10;0.10;;;13.10;99.90;;;;;;5073719;28;20674;-81
2023/06/09 00:06:40;;;;;;;0.10;0.10;;;13.00;99.90;;;;;;5082712;28;20923;-81
2023/06/09 00:09:07;;;;;;;0.00;0.00;;;13.00;99.90;;;;;;5072890;28;20418;-81
2023/06/09 00:11:35;;;;;;;0.10;0.10;;;13.00;99.90;;;;;;5066497;28;20179;-80
2023/06/09 00:14:01;;;;;;;0.10;0.10;;;13.10;99.90;;;;;;5070517;28;20437;-80
2023/06/09 00:16:28;;;;;;;0.10;0.10;;;13.00;99.90;;;;;;5072195;28;20447;-78
2023/06/09 00:18:57;;;;;;;0.07;0.07;;;13.00;99.90;;;;;;5074758;28;20501;-80
2023/06/09 00:21:25;;;;;;;0.10;0.10;;;13.00;99.90;;;;;;5075384;28;20430;-79
2023/06/09 00:23:52;;;;;;;0.00;0.00;;;12.90;99.90;;;;;;5075483;28;20479;-80
2023/06/09 00:26:17;;;;;;;0.10;0.10;;;12.90;99.90;;;;;;5070160;28;20440;-80
2023/06/09 00:28:43;;;;;;;0.10;0.10;;;13.00;99.90;;;;;;5053322;28;20451;-80
2023/06/09 00:31:09;;;;;;;0.03;0.03;;;12.90;99.90;;;;;;5073818;28;20472;-80
2023/06/09 00:33:35;;;;;;;0.10;0.10;;;12.90;99.90;;;;;;5072808;28;20977;-78
2023/06/09 00:36:00;;;;;;;0.10;0.10;;;12.80;99.90;;;;;;5074553;28;20959;-80
2023/06/09 00:38:26;;;;;;;0.10;0.10;;;12.80;99.90;;;;;;5065401;28;20186;-78
2023/06/09 00:40:52;;;;;;;0.10;0.10;;;12.80;99.90;;;;;;5071000;28;20196;-80
2023/06/09 00:43:18;;;;;;;0.10;0.10;;;12.70;99.90;;;;;;5070600;28;20919;-80
2023/06/09 00:45:43;;;;;;;0.10;0.10;;;12.60;99.90;;;;;;5064172;28;20238;-80
2023/06/09 00:48:09;;;;;;;0.10;0.10;;;12.60;99.90;;;;;;5087921;28;20201;-80
2023/06/09 00:50:36;;;;;;;0.10;0.10;;;12.60;99.90;;;;;;5070212;28;20197;-79
2023/06/09 00:53:02;;;;;;;0.10;0.10;;;12.50;99.90;;;;;;5072960;28;20182;-80
2023/06/09 00:55:30;;;;;;;0.10;0.10;;;12.60;99.90;;;;;;5081666;28;20948;-80
2023/06/09 00:57:56;;;;;;;0.03;0.03;;;12.50;99.90;;;;;;5056660;28;20476;-80
2023/06/09 01:00:27;;;;;;;0.10;0.10;;;12.50;99.90;;;;;;5063971;28;20453;-80
2023/06/09 01:03:00;;;;;;;0.10;0.10;;;12.50;99.90;;;;;;5074057;28;21004;-80
2023/06/09 01:05:28;;;;;;;0.10;0.10;;;12.50;99.90;;;;;;5072153;28;20475;-80
2023/06/09 01:08:00;;;;;;;0.10;0.10;;;12.30;99.90;;;;;;5087451;28;20533;-80
2023/06/09 01:10:45;;;;;;;0.10;0.10;;;12.10;99.90;;;;;;5072631;28;20440;-78
2023/06/09 01:13:21;;;;;;;0.10;0.10;;;12.10;99.90;;;;;;5058560;28;20454;-80
2023/06/09 01:16:01;;;;;;;0.10;0.10;;;12.10;99.90;;;;;;5069939;28;20494;-80
2023/06/09 01:18:30;;;;;;;0.10;0.10;;;12.10;99.90;;;;;;5066209;28;20450;-80
2023/06/09 01:21:15;;;;;;;0.10;0.10;;;12.00;99.90;;;;;;5068636;28;20439;-80
2023/06/09 01:24:04;;;;;;;0.10;0.10;;;12.10;99.90;;;;;;5070819;28;20487;-80
2023/06/09 01:26:30;;;;;;;0.10;0.10;;;12.00;99.90;;;;;;5057222;28;20443;-78
2023/06/09 01:28:58;;;;;;;0.10;0.10;;;12.00;99.90;;;;;;5078137;28;20577;-80
2023/06/09 01:31:24;;;;;;;0.10;0.10;;;11.90;99.90;;;;;;5069044;28;20863;-80
2023/06/09 01:33:51;;;;;;;0.10;0.10;;;12.00;99.90;;;;;;5078291;28;20465;-80
2023/06/09 01:36:16;;;;;;;0.00;0.00;;;11.90;99.90;;;;;;5070634;28;20636;-79
2023/06/09 01:38:43;;;;;;;0.10;0.10;;;11.90;99.90;;;;;;5060620;28;20985;-80
2023/06/09 01:41:09;;;;;;;0.10;0.10;;;11.80;99.90;;;;;;5067476;28;20443;-78
2023/06/09 01:43:35;;;;;;;0.10;0.10;;;11.80;99.90;;;;;;5058384;28;20857;-80
2023/06/09 01:46:00;;;;;;;0.10;0.10;;;11.70;99.90;;;;;;5067590;28;20432;-80
2023/06/09 01:48:38;;;;;;;0.10;0.10;;;11.60;99.90;;;;;;5063775;28;20737;-80
2023/06/09 01:51:08;;;;;;;0.10;0.10;;;11.70;99.90;;;;;;5069680;28;20182;-80
2023/06/09 01:53:40;;;;;;;0.10;0.10;;;11.50;99.90;;;;;;5071605;28;20523;-80
2023/06/09 01:56:19;;;;;;;0.10;0.10;;;11.60;99.90;;;;;;5070639;28;20413;-80
2023/06/09 01:58:51;;;;;;;0.10;0.10;;;11.50;99.90;;;;;;5047464;28;20497;-80
2023/06/09 02:01:18;;;;;;;0.10;0.10;;;11.50;99.90;;;;;;5047915;28;20449;-80
2023/06/09 02:03:47;;;;;;;0.10;0.10;;;11.40;99.90;;;;;;5034399;28;20493;-80
2023/06/09 02:06:15;;;;;;;0.10;0.10;;;11.50;99.90;;;;;;5044820;28;20445;-80
2023/06/09 02:08:42;;;;;;;0.10;0.10;;;11.50;99.90;;;;;;5033810;28;20468;-80
2023/06/09 02:11:09;;;;;;;0.10;0.10;;;11.60;99.90;;;;;;5050409;28;20971;-80
2023/06/09 02:13:35;;;;;;;0.10;0.10;;;11.60;99.90;;;;;;5070603;28;20416;-80
2023/06/09 02:16:00;;;;;;;0.10;0.10;;;11.60;99.90;;;;;;5050264;28;20974;-80
2023/06/09 02:18:26;;;;;;;0.10;0.10;;;11.60;99.90;;;;;;5047661;28;20187;-80
2023/06/09 02:20:52;;;;;;;0.10;0.10;;;11.60;99.90;;;;;;5069914;28;20188;-80
2023/06/09 02:23:20;;;;;;;0.10;0.10;;;11.60;99.90;;;;;;5050396;28;20575;-79
2023/06/09 02:25:46;;;;;;;0.10;0.10;;;11.60;99.90;;;;;;5048777;28;20193;-80
2023/06/09 02:28:12;;;;;;;0.10;0.10;;;11.50;99.90;;;;;;5033413;28;20813;-80
2023/06/09 02:30:37;;;;;;;0.20;0.20;;;11.50;99.90;;;;;;5048115;28;20669;-78
2023/06/09 02:33:03;;;;;;;0.10;0.10;;;11.40;99.90;;;;;;5047647;28;20456;-80
2023/06/09 02:35:29;;;;;;;0.10;0.10;;;11.40;99.90;;;;;;5032800;28;20595;-80
2023/06/09 02:37:57;;;;;;;0.10;0.10;;;11.40;99.90;;;;;;5044294;28;20262;-80
2023/06/09 02:40:26;;;;;;;0.20;0.20;;;11.30;99.90;;;;;;5054414;28;20452;-80
2023/06/09 02:42:51;;;;;;;0.10;0.10;;;11.30;99.90;;;;;;5047562;28;20473;-80
2023/06/09 02:45:17;;;;;;;0.10;0.10;;;11.20;99.90;;;;;;5044934;28;20475;-80
2023/06/09 02:47:42;;;;;;;0.10;0.10;;;11.30;99.90;;;;;;5026053;28;20190;-80
2023/06/09 02:50:08;;;;;;;0.20;0.20;;;11.30;99.90;;;;;;5016338;28;20734;-80
2023/06/09 02:52:34;;;;;;;0.10;0.10;;;11.20;99.90;;;;;;5047616;28;20546;-80
2023/06/09 02:55:00;;;;;;;0.10;0.10;;;11.20;99.90;;;;;;5035567;28;20662;-80
2023/06/09 02:57:27;;;;;;;0.10;0.10;;;11.20;99.90;;;;;;5055073;28;20500;-80
2023/06/09 02:59:52;;;;;;;0.10;0.10;;;11.20;99.90;;;;;;5050438;28;20960;-80
2023/06/09 03:02:18;;;;;;;0.13;0.13;;;11.10;99.90;;;;;;5047551;28;20618;-80
2023/06/09 03:04:43;;;;;;;0.10;0.10;;;11.10;99.90;;;;;;5049407;28;20183;-80
2023/06/09 03:07:13;;;;;;;0.10;0.10;;;11.10;99.90;;;;;;5052679;28;20190;-80
2023/06/09 03:09:42;;;;;;;0.10;0.10;;;11.00;99.90;;;;;;5047816;28;20189;-78
2023/06/09 03:12:08;;;;;;;0.10;0.10;;;11.00;99.90;;;;;;5047255;28;20812;-80
2023/06/09 03:14:34;;;;;;;0.10;0.10;;;10.90;99.90;;;;;;5047422;28;20440;-80
2023/06/09 03:17:00;;;;;;;0.10;0.10;;;10.90;99.90;;;;;;5038671;28;20433;-80
2023/06/09 03:19:26;;;;;;;0.10;0.10;;;11.00;99.90;;;;;;5054913;28;20439;-80
2023/06/09 03:21:52;;;;;;;0.10;0.10;;;11.00;99.90;;;;;;5047451;28;20211;-80
2023/06/09 03:24:19;;;;;;;0.10;0.10;;;11.00;99.90;;;;;;5029848;28;20984;-80
2023/06/09 03:26:48;;;;;;;0.10;0.10;;;10.90;99.90;;;;;;5043834;28;20202;-80
2023/06/09 03:29:14;;;;;;;0.20;0.20;;;10.90;99.90;;;;;;5052142;28;20454;-80
2023/06/09 03:31:40;;;;;;;0.10;0.10;;;10.90;99.90;;;;;;5029752;28;20445;-80
2023/06/09 03:34:06;;;;;;;0.10;0.10;;;11.00;99.90;;;;;;5047975;28;20806;-80
2023/06/09 03:36:33;;;;;;;0.10;0.10;;;11.00;99.90;;;;;;5047332;28;20191;-80
2023/06/09 03:38:58;;;;;;;0.10;0.10;;;11.00;99.90;;;;;;5046908;28;20194;-80
2023/06/09 03:41:25;;;;;;;0.10;0.10;;;11.00;99.90;;;;;;5046400;28;20441;-80
2023/06/09 03:43:50;;;;;;;0.10;0.10;;;11.00;99.90;;;;;;5048862;28;20210;-80
2023/06/09 03:46:16;;;;;;;0.10;0.10;;;10.90;99.90;;;;;;5045177;28;20985;-80
2023/06/09 03:48:41;;;;;;;0.10;0.10;;;11.00;99.90;;;;;;5029329;28;20662;-80
2023/06/09 03:51:07;;;;;;;0.10;0.10;;;11.10;99.90;;;;;;5033005;28;20186;-80
2023/06/09 03:53:32;;;;;;;0.20;0.20;;;11.10;99.90;;;;;;5050102;28;20569;-80
2023/06/09 03:56:01;;;;;;;0.10;0.10;;;11.10;99.90;;;;;;5038623;28;20229;-80
2023/06/09 03:58:27;;;;;;;0.10;0.10;;;11.10;99.90;;;;;;5057361;28;20227;-81
2023/06/09 04:00:53;;;;;;;0.10;0.10;;;11.10;99.90;;;;;;5056750;28;20458;-80
2023/06/09 04:03:20;;;;;;;0.20;0.20;;;11.10;99.90;;;;;;5052507;28;20313;-81
2023/06/09 04:05:46;;;;;;;0.10;0.10;;;11.20;99.90;;;;;;5060485;28;20221;-80
2023/06/09 04:08:12;;;;;;;0.10;0.10;;;11.20;99.90;;;;;;5050774;28;20826;-80
2023/06/09 04:10:39;;;;;;;0.10;0.10;;;11.20;99.90;;;;;;5032038;28;20471;-80
2023/06/09 04:13:04;;;;;;;0.10;0.10;;;11.20;99.90;;;;;;5061726;28;20221;-80
2023/06/09 04:15:31;;;;;;;0.10;0.10;;;11.30;99.90;;;;;;5047436;28;20857;-80
2023/06/09 04:17:57;;;;;;;0.10;0.10;;;11.30;99.90;;;;;;5059283;28;20274;-78
2023/06/09 04:20:24;;;;;;;0.10;0.10;;;11.30;99.90;;;;;;5053053;28;20475;-81
2023/06/09 04:22:50;;;;;;;0.10;0.10;;;11.40;99.90;;;;;;5063107;28;20471;-81
2023/06/09 04:25:17;;;;;;;0.10;0.10;;;11.40;99.90;;;;;;5065004;28;20445;-80
2023/06/09 04:27:42;;;;;;;0.10;0.10;;;11.40;99.90;;;;;;5051362;28;20417;-81
2023/06/09 04:30:10;;;;;;;0.10;0.10;;;11.40;99.90;;;;;;5056399;28;20447;-80
2023/06/09 04:32:36;;;;;;;0.10;0.10;;;11.50;99.90;;;;;;5063591;28;20236;-80
2023/06/09 04:35:02;;;;;;;0.10;0.10;;;11.50;99.90;;;;;;5049423;28;20445;-81
2023/06/09 04:37:29;;;;;;;0.10;0.10;;;11.50;99.90;;;;;;5048873;28;20976;-81
2023/06/09 04:39:55;;;;;;;0.10;0.10;;;11.70;99.90;;;;;;5061156;28;20456;-81
2023/06/09 04:42:22;;;;;;;0.10;0.10;;;11.80;99.90;;;;;;5068898;28;20522;-80
2023/06/09 04:44:48;;;;;;;0.10;0.10;;;11.80;99.90;;;;;;5051288;28;20253;-78
2023/06/09 04:47:17;;;;;;;0.10;0.10;;;11.70;99.90;;;;;;5066901;28;20936;-78
2023/06/09 04:49:43;;;;;;;0.10;0.10;;;11.80;99.90;;;;;;5054877;28;20450;-79
2023/06/09 04:52:10;;;;;;;0.10;0.10;;;11.90;99.90;;;;;;5067117;28;20513;-78
2023/06/09 04:54:36;;;;;;;0.10;0.10;;;12.00;99.90;;;;;;5041897;28;20831;-79
2023/06/09 04:57:03;;;;;;;0.10;0.10;;;12.10;99.90;;;;;;5059958;28;20436;-81
2023/06/09 04:59:29;;;;;;;0.10;0.10;;;12.10;99.90;;;;;;5085563;28;20224;-81
2023/06/09 05:01:55;;;;;;;0.10;0.10;;;12.20;99.90;;;;;;5048617;28;20501;-80
2023/06/09 05:04:20;;;;;;;0.10;0.10;;;12.30;99.90;;;;;;5062558;28;20459;-80
2023/06/09 05:06:46;;;;;;;0.10;0.10;;;12.40;99.90;;;;;;5070481;28;21172;-81
2023/06/09 05:09:12;;;;;;;0.10;0.10;;;12.50;99.90;;;;;;5051075;28;20272;-81
2023/06/09 05:11:37;;;;;;;0.10;0.10;;;12.60;99.90;;;;;;5079814;28;20327;-78
2023/06/09 05:14:06;;;;;;;0.10;0.10;;;12.70;99.90;;;;;;5070356;28;20190;-80
2023/06/09 05:16:34;;;;;;;0.10;0.10;;;12.70;99.90;;;;;;5075399;28;20208;-80
2023/06/09 05:19:00;;;;;;;0.10;0.10;;;12.90;99.90;;;;;;5085644;28;20517;-80
2023/06/09 05:21:27;;;;;;;0.10;0.10;;;13.00;99.90;;;;;;5051386;28;20950;-80
2023/06/09 05:23:53;;;;;;;0.10;0.10;;;13.20;99.90;;;;;;5051834;28;20232;-80
2023/06/09 05:26:19;;;;;;;0.20;0.20;;;13.30;99.90;;;;;;5070166;28;20546;-80
2023/06/09 05:28:46;;;;;;;0.10;0.10;;;13.50;99.90;;;;;;5071843;28;20530;-80
2023/06/09 05:31:11;;;;;;;0.10;0.10;;;13.70;99.90;;;;;;5049063;28;20492;-79
2023/06/09 05:33:37;;;;;;;0.10;0.10;;;13.70;99.90;;;;;;5068541;28;21191;-79
2023/06/09 05:36:03;;;;;;;0.10;0.10;;;14.00;99.90;;;;;;5050404;28;20193;-79
2023/06/09 05:38:29;;;;;;;0.10;0.10;;;14.00;99.90;;;;;;5067076;28;20444;-78
2023/06/09 05:40:55;;;;;;;0.10;0.10;;;14.20;99.90;;;;;;5068707;28;20428;-79
2023/06/09 05:43:21;;;;;;;0.10;0.10;;;14.30;99.90;;;;;;5066678;28;20224;-79
2023/06/09 05:45:47;;;;;;;0.10;0.10;;;14.40;99.90;;;;;;5044580;28;20440;-79
2023/06/09 05:48:12;;;;;;;0.10;0.10;;;14.60;99.90;;;;;;5050515;28;20190;-78
2023/06/09 05:50:38;;;;;;;0.10;0.10;;;14.80;99.90;;;;;;5066811;28;20454;-79
2023/06/09 05:53:04;;;;;;;0.10;0.10;;;14.80;99.90;;;;;;5066883;28;20215;-79
2023/06/09 05:55:30;;;;;;;0.10;0.10;;;14.90;99.90;;;;;;5065742;28;20265;-78
2023/06/09 05:57:56;;;;;;;0.10;0.10;;;15.20;99.90;;;;;;5073400;28;20274;-79
2023/06/09 06:00:29;;;;;;;0.00;0.00;;;15.30;99.90;;;;;;5069051;28;20186;-79
2023/06/09 06:02:54;;;;;;;0.00;0.00;;;15.60;99.90;;;;;;5065346;28;20536;-80
2023/06/09 06:05:20;;;;;;;0.10;0.10;;;15.80;99.90;;;;;;5069297;28;20444;-79
2023/06/09 06:07:46;;;;;;;0.10;0.10;;;15.70;99.90;;;;;;5067065;28;20288;-79
2023/06/09 06:10:11;;;;;;;0.10;0.10;;;15.70;99.90;;;;;;5086225;28;20217;-79
2023/06/09 06:12:37;;;;;;;0.10;0.10;;;16.00;99.90;;;;;;5073597;28;20645;-79
2023/06/09 06:15:02;;;;;;;0.10;0.10;;;16.20;99.90;;;;;;5066681;28;20188;-79
2023/06/09 06:17:28;;;;;;;0.10;0.10;;;16.20;99.90;;;;;;5050056;28;20236;-79
2023/06/09 06:19:54;;;;;;;0.10;0.10;;;16.40;99.90;;;;;;5069105;28;20191;-79
2023/06/09 06:22:19;;;;;;;0.10;0.10;;;16.50;99.90;;;;;;5064715;28;20255;-79
2023/06/09 06:24:45;;;;;;;0.10;0.10;;;16.60;99.90;;;;;;5057325;28;20955;-79
2023/06/09 06:27:11;;;;;;;0.10;0.10;;;16.80;99.90;;;;;;5064075;28;20803;-79
2023/06/09 06:29:38;;;;;;;0.10;0.10;;;16.90;99.90;;;;;;5066114;28;20604;-79
2023/06/09 06:32:05;;;;;;;0.10;0.10;;;16.90;99.90;;;;;;5072843;28;20397;-80
2023/06/09 06:34:31;;;;;;;0.10;0.10;;;17.10;99.90;;;;;;5065442;28;20466;-78
2023/06/09 06:36:56;;;;;;;0.10;0.10;;;17.20;99.90;;;;;;5065160;28;20879;-79
2023/06/09 06:39:22;;;;;;;0.10;0.10;;;17.20;99.90;;;;;;5068705;28;20186;-79
2023/06/09 06:41:47;;;;;;;0.00;0.00;;;17.20;99.90;;;;;;5070746;28;20198;-80
2023/06/09 06:44:13;;;;;;;0.10;0.10;;;17.50;99.90;;;;;;5066833;28;20185;-80
2023/06/09 06:46:39;;;;;;;0.00;0.00;;;17.60;99.90;;;;;;5067358;28;20629;-79
2023/06/09 06:49:04;;;;;;;0.10;0.10;;;17.70;99.90;;;;;;5051528;28;20475;-80
2023/06/09 06:51:30;;;;;;;0.10;0.10;;;17.90;99.90;;;;;;5049220;28;20189;-80
2023/06/09 06:53:55;;;;;;;0.07;0.07;;;17.90;99.90;;;;;;5063732;28;20186;-80
2023/06/09 06:56:25;;;;;;;0.00;0.00;;;18.00;99.90;;;;;;5067778;28;20201;-80
2023/06/09 06:58:52;;;;;;;0.00;0.00;;;18.10;99.90;;;;;;5068013;28;20217;-80
2023/06/09 07:01:20;;;;;;;0.00;0.00;;;18.20;99.90;;;;;;5063936;28;20932;-80
2023/06/09 07:03:46;;;;;;;0.10;0.10;;;18.30;99.90;;;;;;5050818;28;20823;-79
2023/06/09 07:06:12;;;;;;;0.10;0.10;;;18.50;99.90;;;;;;5065631;28;20966;-80
2023/06/09 07:08:37;;;;;;;0.00;0.00;;;18.50;99.90;;;;;;5069917;28;20416;-80
2023/06/09 07:11:03;;;;;;;0.00;0.00;;;18.50;99.90;;;;;;5069390;28;20189;-80
2023/06/09 07:13:29;;;;;;;0.10;0.10;;;18.60;99.90;;;;;;5072811;28;20190;-79
2023/06/09 07:15:55;;;;;;;0.00;0.00;;;18.60;99.90;;;;;;5067321;28;20185;-80
2023/06/09 07:18:20;;;;;;;0.00;0.00;;;18.70;99.90;;;;;;5064349;28;20646;-80
2023/06/09 07:20:48;;;;;;;0.00;0.00;;;18.70;99.90;;;;;;5065850;28;20268;-79
2023/06/09 07:23:13;;;;;;;0.00;0.00;;;18.70;99.90;;;;;;5067496;28;21834;-80
2023/06/09 07:25:39;;;;;;;0.00;0.00;;;18.80;99.90;;;;;;5069889;28;20436;-80
2023/06/09 07:28:04;;;;;;;0.00;0.00;;;18.90;99.90;;;;;;5071572;28;20212;-80
2023/06/09 07:30:30;;;;;;;0.00;0.00;;;18.90;99.90;;;;;;5070770;28;20547;-78
2023/06/09 07:32:55;;;;;;;0.00;0.00;;;19.10;99.90;;;;;;5072100;28;20665;-79
2023/06/09 07:35:23;;;;;;;0.00;0.00;;;19.10;99.90;;;;;;5068383;28;20226;-79
2023/06/09 07:37:48;;;;;;;0.00;0.00;;;19.30;99.90;;;;;;5071407;28;20247;-79
2023/06/09 07:40:14;;;;;;;0.00;0.00;;;19.50;99.90;;;;;;5072594;28;20440;-80
2023/06/09 07:42:39;;;;;;;0.00;0.00;;;19.60;99.90;;;;;;5048119;28;20245;-80
2023/06/09 07:45:06;;;;;;;0.00;0.00;;;19.50;99.90;;;;;;5072487;28;20288;-80
2023/06/09 07:47:31;;;;;;;0.00;0.00;;;19.60;99.90;;;;;;5073877;28;20205;-80
2023/06/09 07:49:57;;;;;;;0.00;0.00;;;19.60;99.90;;;;;;5074781;28;20439;-79
2023/06/09 07:52:22;;;;;;;0.00;0.00;;;19.70;99.90;;;;;;5062338;28;20280;-79
2023/06/09 07:54:48;;;;;;;0.00;0.00;;;19.80;99.90;;;;;;5076553;28;20194;-79
2023/06/09 07:57:15;;;;;;;0.00;0.00;;;19.80;99.90;;;;;;5065580;28;20175;-79
2023/06/09 07:59:41;;;;;;;0.00;0.00;;;19.80;99.90;;;;;;5052282;28;22198;-79
2023/06/09 08:02:07;;;;;;;0.00;0.00;;;20.10;99.90;;;;;;5065008;28;20479;-80
2023/06/09 08:04:32;;;;;;;0.00;0.00;;;20.10;99.90;;;;;;5071111;28;20186;-80
2023/06/09 08:06:59;;;;;;;0.00;0.00;;;20.40;99.90;;;;;;5058164;28;20177;-79
2023/06/09 08:09:25;;;;;;;0.00;0.00;;;20.30;99.90;;;;;;5068633;28;20209;-79
2023/06/09 08:11:51;;;;;;;0.00;0.00;;;20.10;99.90;;;;;;5076445;28;20440;-79
2023/06/09 08:14:17;;;;;;;0.00;0.00;;;20.40;99.90;;;;;;5073776;28;20530;-79
2023/06/09 08:16:43;;;;;;;0.00;0.00;;;20.50;99.90;;;;;;5052046;28;20462;-79
2023/06/09 08:19:09;;;;;;;0.00;0.00;;;20.40;99.90;;;;;;5071282;28;21017;-80
2023/06/09 08:21:42;;;;;;;0.00;0.00;;;20.90;99.90;;;;;;5052954;28;20486;-80
2023/06/09 08:24:08;;;;;;;0.00;0.00;;;21.10;99.90;;;;;;5070135;28;20225;-80
2023/06/09 08:26:34;;;;;;;0.00;0.00;;;21.00;99.90;;;;;;5051138;28;21041;-80
2023/06/09 08:28:59;;;;;;;0.00;0.00;;;21.10;99.90;;;;;;5067472;28;20440;-79
2023/06/09 08:31:27;;;;;;;0.00;0.00;;;21.10;99.90;;;;;;5065371;28;20189;-79
2023/06/09 08:33:54;;;;;;;0.00;0.00;;;21.40;99.90;;;;;;5063884;28;20232;-81
2023/06/09 08:36:20;;;;;;;0.00;0.00;;;21.50;99.90;;;;;;5052721;28;20475;-80
2023/06/09 08:38:46;;;;;;;0.00;0.00;;;21.70;99.90;;;;;;5067200;28;20433;-80
2023/06/09 08:41:14;;;;;;;0.00;0.00;;;21.70;99.90;;;;;;5069273;28;20436;-80
2023/06/09 08:43:40;;;;;;;0.00;0.00;;;22.00;99.90;;;;;;5067129;28;20210;-80
2023/06/09 08:46:11;;;;;;;0.00;0.00;;;22.00;99.90;;;;;;5065653;28;20440;-80
2023/06/09 08:48:41;;;;;;;0.00;0.00;;;22.10;99.90;;;;;;5066864;28;20190;-80
2023/06/09 08:51:08;;;;;;;0.00;0.00;;;22.10;99.90;;;;;;5077751;28;20447;-79
2023/06/09 08:53:34;;;;;;;0.00;0.00;;;22.20;99.90;;;;;;5067311;28;20453;-80
2023/06/09 08:56:01;;;;;;;0.00;0.00;;;22.30;99.90;;;;;;5066724;28;20436;-79
2023/06/09 08:58:27;;;;;;;0.00;0.00;;;22.30;99.90;;;;;;5053191;28;20479;-79
2023/06/09 09:00:53;;;;;;;0.00;0.00;;;22.60;99.90;;;;;;5049672;28;20543;-80
2023/06/09 09:03:19;;;;;;;0.00;0.00;;;22.70;99.90;;;;;;5066051;28;20551;-77
2023/06/09 09:05:45;;;;;;;0.00;0.00;;;22.60;99.90;;;;;;5049185;28;20191;-79
2023/06/09 09:08:12;;;;;;;0.00;0.00;;;22.70;99.90;;;;;;5047658;28;20197;-78
2023/06/09 09:10:40;;;;;;;0.00;0.00;;;23.00;99.90;;;;;;5067784;28;20437;-79
2023/06/09 09:13:09;;;;;;;0.00;0.00;;;23.20;99.90;;;;;;5054813;28;20493;-79
2023/06/09 09:15:35;;;;;;;0.00;0.00;;;23.00;99.90;;;;;;5050397;28;20441;-79
2023/06/09 09:18:00;;;;;;;0.00;0.00;;;23.20;99.90;;;;;;5068815;28;20447;-78
2023/06/09 09:20:33;;;;;;;0.00;0.00;;;23.40;99.90;;;;;;5082770;28;20443;-78
2023/06/09 09:22:59;;;;;;;0.00;0.00;;;23.70;99.90;;;;;;5061015;28;20256;-79
2023/06/09 09:25:26;;;;;;;0.00;0.00;;;23.70;99.90;;;;;;5067320;28;20468;-79
2023/06/09 09:28:05;;;;;;;0.00;0.00;;;23.70;99.90;;;;;;5066503;28;20177;-79
2023/06/09 09:30:41;;;;;;;0.00;0.00;;;23.80;99.90;;;;;;5074988;28;21228;-79
2023/06/09 09:33:11;;;;;;;0.00;0.00;;;24.00;99.90;;;;;;5068654;28;20444;-80
2023/06/09 09:35:39;;;;;;;0.00;0.00;;;23.70;99.90;;;;;;5064878;28;20436;-79
2023/06/09 09:38:11;;;;;;;0.00;0.00;;;23.70;99.90;;;;;;5064046;28;20447;-79
2023/06/09 09:40:44;;;;;;;0.00;0.00;;;24.00;99.90;;;;;;5058474;28;20443;-78
2023/06/09 09:43:10;;;;;;;0.00;0.00;;;24.30;99.90;;;;;;5079561;28;21295;-78
2023/06/09 09:45:38;;;;;;;0.00;0.00;;;24.20;99.90;;;;;;5066612;28;20475;-79
2023/06/09 09:48:09;;;;;;;0.00;0.00;;;24.10;99.90;;;;;;5080748;28;20261;-79
2023/06/09 09:50:38;;;;;;;0.00;0.00;;;24.30;99.90;;;;;;5072034;28;20866;-78
2023/06/09 09:53:08;;;;;;;0.00;0.00;;;24.70;99.90;;;;;;5088275;28;20526;-79
2023/06/09 09:55:40;;;;;;;0.00;0.00;;;24.80;99.90;;;;;;5050643;28;20460;-79
2023/06/09 09:58:08;;;;;;;0.00;0.00;;;24.60;99.90;;;;;;5061933;28;20499;-80
2023/06/09 10:00:35;;;;;;;0.00;0.00;;;25.00;99.90;;;;;;5065318;28;20520;-78
2023/06/09 10:03:25;;;;;;;0.00;0.00;;;24.50;99.90;;;;;;5045865;28;20922;-80
2023/06/09 10:05:52;;;;;;;0.00;0.00;;;24.60;99.90;;;;;;5070923;28;20451;-79
2023/06/09 10:08:23;;;;;;;0.00;0.00;;;24.50;99.90;;;;;;5048156;28;20602;-79
2023/06/09 10:10:50;;;;;;;0.00;0.00;;;25.00;99.90;;;;;;5048341;28;20444;-78
2023/06/09 10:13:17;;;;;;;0.00;0.00;;;25.30;99.90;;;;;;5067697;28;20436;-78
2023/06/09 10:15:43;;;;;;;0.00;0.00;;;25.60;99.90;;;;;;5065524;28;20424;-79
2023/06/09 10:18:11;;;;;;;0.00;0.00;;;25.90;99.90;;;;;;5067134;28;20474;-78
2023/06/09 10:20:36;;;;;;;0.00;0.00;;;25.70;99.90;;;;;;5074573;28;20436;-79
2023/06/09 10:23:04;;;;;;;0.00;0.00;;;26.20;99.90;;;;;;5067123;28;21004;-79
2023/06/09 10:25:30;;;;;;;0.00;0.00;;;26.00;99.90;;;;;;5058492;28;20183;-79
2023/06/09 10:27:56;;;;;;;0.00;0.00;;;26.20;99.90;;;;;;5058995;28;20542;-80
2023/06/09 10:30:22;;;;;;;0.00;0.00;;;26.70;99.90;;;;;;5046140;28;20539;-79
2023/06/09 10:32:57;;;;;;;0.00;0.00;;;26.60;99.90;;;;;;5063134;28;20455;-80
2023/06/09 10:35:34;;;;;;;0.00;0.00;;;26.80;99.90;;;;;;5066069;28;20890;-79
2023/06/09 10:38:19;;;;;;;0.00;0.00;;;27.20;99.90;;;;;;5080428;28;20444;-79
2023/06/09 10:40:52;;;;;;;0.00;0.00;;;27.50;99.90;;;;;;5057490;28;20448;-81
2023/06/09 10:43:25;;;;;;;0.00;0.00;;;27.70;99.90;;;;;;5059442;28;20823;-78
2023/06/09 10:45:53;;;;;;;0.00;0.00;;;27.50;99.90;;;;;;5066944;28;21015;-78
2023/06/09 10:48:50;;;;;;;0.00;0.00;;;27.90;99.90;;;;;;5068321;28;20444;-78
2023/06/09 10:51:27;;;;;;;0.00;0.00;;;27.90;99.90;;;;;;5069351;28;20523;-78
2023/06/09 10:54:12;;;;;;;0.00;0.00;;;28.00;99.90;;;;;;5066953;28;20498;-78
2023/06/09 10:56:41;;;;;;;0.00;0.00;;;28.00;98.60;;;;;;5068352;28;20498;-79
2023/06/09 10:59:25;;;;;;;0.00;0.00;;;27.90;99.90;;;;;;5064225;28;20979;-78
2023/06/09 11:02:02;;;;;;;0.00;0.00;;;28.10;99.90;;;;;;5039311;28;20441;-79
2023/06/09 11:04:46;;;;;;;0.00;0.00;;;28.40;99.30;;;;;;5048337;28;20479;-76
2023/06/09 11:07:17;;;;;;;0.00;0.00;;;28.80;98.00;;;;;;5055670;28;20464;-77
2023/06/09 11:10:05;;;;;;;0.00;0.00;;;28.90;99.20;;;;;;5059982;28;20458;-76
2023/06/09 11:12:37;;;;;;;0.00;0.00;;;28.50;98.10;;;;;;5064507;28;20444;-78
2023/06/09 11:15:03;;;;;;;0.00;0.00;;;28.80;97.90;;;;;;5052172;28;20442;-76
2023/06/09 11:17:42;;;;;;;0.00;0.00;;;29.00;98.70;;;;;;5048386;28;20487;-78
2023/06/09 11:20:08;;;;;;;0.00;0.00;;;28.40;98.70;;;;;;5050510;28;20523;-76
2023/06/09 11:22:58;;;;;;;0.00;0.00;;;28.70;99.70;;;;;;5054845;28;20476;-76
2023/06/09 11:25:26;;;;;;;0.00;0.00;;;28.80;98.80;;;;;;5029942;28;21276;-76
2023/06/09 11:27:54;;;;;;;0.00;0.00;;;28.60;99.90;;;;;;5048959;28;20445;-76
2023/06/09 11:30:21;;;;;;;0.00;0.00;;;28.50;99.90;;;;;;5049341;28;21006;-76
2023/06/09 11:32:50;;;;;;;0.00;0.00;;;28.50;99.90;;;;;;5047923;28;20531;-76
2023/06/09 11:35:27;;;;;;;0.00;0.00;;;28.70;99.90;;;;;;5047703;28;20480;-77
2023/06/09 11:37:58;;;;;;;0.00;0.00;;;28.90;99.70;;;;;;5046298;28;21011;-76
2023/06/09 11:40:28;;;;;;;0.00;0.00;;;29.20;99.90;;;;;;5029758;28;21015;-76
2023/06/09 11:42:58;;;;;;;0.00;0.00;;;29.60;99.90;;;;;;5051750;28;20869;-76
2023/06/09 11:45:25;;;;;;;0.00;0.00;;;29.70;99.90;;;;;;5051792;28;20958;-75
2023/06/09 11:47:56;;;;;;;0.00;0.00;;;29.60;99.90;;;;;;5061773;28;20962;-76
2023/06/09 11:50:23;;;;;;;0.00;0.00;;;29.50;97.90;;;;;;5033978;28;20449;-76
2023/06/09 11:53:02;;;;;;;0.00;0.00;;;29.60;97.30;;;;;;5069484;28;20447;-76
2023/06/09 11:55:28;;;;;;;0.00;0.00;;;29.60;99.50;;;;;;5064641;28;20436;-76
2023/06/09 11:57:54;;;;;;;0.00;0.00;;;29.30;97.90;;;;;;5051536;28;20978;-76
2023/06/09 12:00:26;;;;;;;0.00;0.00;;;29.30;97.40;;;;;;5059298;28;20935;-77
2023/06/09 12:02:52;;;;;;;0.00;0.00;;;29.90;95.20;;;;;;5052146;28;20246;-76
2023/06/09 12:05:19;;;;;;;0.10;0.00;;;29.80;97.50;;;;;;5036470;28;20864;-75
2023/06/09 12:07:46;;;;;;;0.00;0.00;;;30.00;99.10;;;;;;5048920;28;20453;-77
2023/06/09 12:10:13;;;;;;;0.10;0.00;;;30.10;98.40;;;;;;5030119;28;20453;-78
2023/06/09 12:12:45;;;;;;;0.10;0.00;;;29.50;97.30;;;;;;5051802;28;20802;-76
2023/06/09 12:15:12;;;;;;;0.10;0.00;;;29.70;99.10;;;;;;5051049;28;20444;-76
2023/06/09 12:17:39;;;;;;;0.10;0.00;;;29.50;98.70;;;;;;5033159;28;20615;-77
2023/06/09 12:20:27;;;;;;;0.10;0.00;;;29.70;98.30;;;;;;5048110;28;20445;-76
2023/06/09 12:23:00;;;;;;;0.10;0.00;;;29.80;97.20;;;;;;5049565;28;20484;-76
2023/06/09 12:25:28;;;;;;;0.10;0.00;;;29.80;97.70;;;;;;5049278;28;20454;-74
2023/06/09 12:27:57;;;;;;;0.10;0.00;;;30.20;96.90;;;;;;5047610;28;20460;-74
2023/06/09 12:30:38;;;;;;;0.10;0.00;;;30.30;97.40;;;;;;5050050;28;20457;-73
2023/06/09 12:33:12;;;;;;;0.10;0.00;;;30.10;94.80;;;;;;5030319;28;20463;-77
2023/06/09 12:35:45;;;;;;;0.10;0.00;;;29.80;95.10;;;;;;5047035;28;20861;-76
2023/06/09 12:38:26;;;;;;;0.10;0.00;;;30.20;95.00;;;;;;5031039;28;20503;-76
2023/06/09 12:41:06;;;;;;;0.10;0.00;;;30.20;96.00;;;;;;5046744;28;20478;-76
2023/06/09 12:43:51;;;;;;;0.10;0.00;;;29.30;94.30;;;;;;5035189;28;20483;-77
2023/06/09 12:46:28;;;;;;;0.10;0.00;;;29.60;94.10;;;;;;5050412;28;20436;-75
2023/06/09 12:49:02;;;;;;;0.10;0.00;;;30.20;94.30;;;;;;5052358;28;20420;-75
2023/06/09 12:51:28;;;;;;;0.10;0.00;;;30.30;94.30;;;;;;5036368;28;21400;-73
2023/06/09 12:53:55;;;;;;;0.10;0.00;;;30.40;93.70;;;;;;5061187;28;20512;-73